createdAt,value
2019-04-22T00:00:10.780Z,7.56
2019-04-22T00:02:48.432Z,7.56
2019-04-22T00:05:21.469Z,7.54
2019-04-22T00:08:03.500Z,7.51
2019-04-22T00:12:59.771Z,7.69
2019-04-22T00:15:26.110Z,7.33
2019-04-22T00:18:10.826Z,7.49
2019-04-22T00:20:30.823Z,7.61
2019-04-22T00:22:56.742Z,7.55
2019-04-22T00:25:39.248Z,7.57
2019-04-22T00:28:02.453Z,7.67
2019-04-22T00:30:41.913Z,7.49
2019-04-22T00:33:03.380Z,7.53
2019-04-22T00:35:35.522Z,7.58
2019-04-22T00:43:06.452Z,7.16
2019-04-22T00:45:40.503Z,7.33
2019-04-22T00:48:09.093Z,7.38
2019-04-22T00:50:37.471Z,7.46
2019-04-22T00:53:11.084Z,7.30
2019-04-22T00:55:38.128Z,7.32
2019-04-22T00:58:02.846Z,7.32
2019-04-22T01:00:39.282Z,7.48
2019-04-22T01:03:16.034Z,7.56
2019-04-22T01:05:34.448Z,7.42
2019-04-22T01:08:05.625Z,7.55
2019-04-22T01:10:31.837Z,7.54
2019-04-22T01:13:08.156Z,7.45
2019-04-22T01:15:34.336Z,7.56
2019-04-22T01:18:00.309Z,7.51
2019-04-22T01:20:54.573Z,7.38
2019-04-22T01:22:58.930Z,7.65
2019-04-22T01:25:28.107Z,7.63
2019-04-22T01:27:54.434Z,7.31
2019-04-22T01:30:19.745Z,7.30
2019-04-22T01:32:41.852Z,7.41
2019-04-22T01:35:20.827Z,7.41
2019-04-22T01:37:54.676Z,7.36
2019-04-22T01:40:31.283Z,7.47
2019-04-22T01:43:01.813Z,7.50
2019-04-22T01:45:37.967Z,7.36
2019-04-22T01:48:05.251Z,7.38
2019-04-22T01:50:32.136Z,7.33
2019-04-22T01:53:06.251Z,7.36
2019-04-22T01:55:35.744Z,7.39
2019-04-22T01:57:53.557Z,7.38
2019-04-22T02:00:25.561Z,7.23
2019-04-22T02:03:07.269Z,7.29
2019-04-22T02:05:29.028Z,7.30
2019-04-22T02:08:06.753Z,7.28
2019-04-22T02:13:00.148Z,7.11
2019-04-22T02:15:31.191Z,7.10
2019-04-22T02:18:01.602Z,7.07
2019-04-22T02:20:32.667Z,7.19
2019-04-22T02:23:30.602Z,7.19
2019-04-22T02:25:41.397Z,7.40
2019-04-22T02:28:07.833Z,7.42
2019-04-22T02:30:54.298Z,7.47
2019-04-22T02:35:52.226Z,7.47
2019-04-22T02:38:07.779Z,7.21
2019-04-22T02:40:45.557Z,7.33
2019-04-22T02:43:12.652Z,7.22
2019-04-22T02:45:46.920Z,7.34
2019-04-22T02:48:18.383Z,7.30
2019-04-22T02:50:32.525Z,7.13
2019-04-22T02:53:10.453Z,7.12
2019-04-22T02:55:32.625Z,7.14
2019-04-22T02:57:57.760Z,7.12
2019-04-22T03:00:34.589Z,7.36
2019-04-22T03:05:27.387Z,7.21
2019-04-22T03:07:58.966Z,7.08
2019-04-22T03:10:35.355Z,7.26
2019-04-22T03:13:09.052Z,7.18
2019-04-22T03:15:11.821Z,7.15
2019-04-22T03:17:43.829Z,7.32
2019-04-22T03:22:46.988Z,7.15
2019-04-22T03:35:37.342Z,7.07
2019-04-22T03:37:49.325Z,6.96
2019-04-22T03:40:16.429Z,7.19
2019-04-22T03:42:45.786Z,7.15
2019-04-22T03:45:25.861Z,7.05
2019-04-22T03:52:29.366Z,7.19
2019-04-22T03:55:14.929Z,7.21
2019-04-22T04:04:49.445Z,7.47
2019-04-22T04:09:58.246Z,7.52
2019-04-22T04:14:53.737Z,7.60
2019-04-22T04:17:26.225Z,7.64
2019-04-22T04:20:05.657Z,7.50
2019-04-22T04:22:30.280Z,7.62
2019-04-22T04:27:34.646Z,7.56
2019-04-22T04:29:56.116Z,7.62
2019-04-22T04:32:26.979Z,7.64
2019-04-22T04:35:07.274Z,7.88
2019-04-22T04:39:44.071Z,7.88
2019-04-22T04:42:33.332Z,7.97
2019-04-22T04:47:38.920Z,8.00
2019-04-22T04:49:52.326Z,8.24
2019-04-22T04:52:14.559Z,8.27
2019-04-22T04:56:57.108Z,8.32
2019-04-22T05:00:11.129Z,8.37
2019-04-22T05:02:02.277Z,8.64
2019-04-22T05:04:37.200Z,8.60
2019-04-22T05:09:26.380Z,8.66
2019-04-22T05:14:24.765Z,8.78
2019-04-22T05:19:23.942Z,8.80
2019-04-22T05:21:51.166Z,8.83
2019-04-22T05:24:17.972Z,9.03
2019-04-22T05:26:52.700Z,9.09
2019-04-22T05:29:09.665Z,9.08
2019-04-22T05:34:08.229Z,9.24
2019-04-22T05:36:32.733Z,9.17
2019-04-22T05:39:06.291Z,9.13
2019-04-22T05:44:03.255Z,9.46
2019-04-22T05:46:28.706Z,9.35
2019-04-22T05:49:03.258Z,9.61
2019-04-22T05:51:31.498Z,9.57
2019-04-22T05:53:57.443Z,9.58
2019-04-22T05:56:37.240Z,9.35
2019-04-22T05:59:02.449Z,9.36
2019-04-22T06:03:59.041Z,9.46
2019-04-22T06:06:17.905Z,9.37
2019-04-22T06:08:55.809Z,9.31
2019-04-22T06:11:24.457Z,9.49
2019-04-22T06:13:48.247Z,9.58
2019-04-22T06:16:26.435Z,9.57
2019-04-22T06:18:57.656Z,9.63
2019-04-22T06:21:31.103Z,10.12
2019-04-22T06:23:58.792Z,10.29
2019-04-22T06:26:33.426Z,10.17
2019-04-22T06:28:48.121Z,10.62
2019-04-22T06:31:21.046Z,10.60
2019-04-22T06:33:48.109Z,10.39
2019-04-22T06:36:15.776Z,10.28
2019-04-22T06:38:45.900Z,10.17
2019-04-22T06:41:17.170Z,10.39
2019-04-22T06:43:44.107Z,10.57
2019-04-22T06:46:20.811Z,10.74
2019-04-22T06:48:49.143Z,10.46
2019-04-22T06:51:27.003Z,10.65
2019-04-22T06:54:01.768Z,10.68
2019-04-22T06:56:35.310Z,10.83
2019-04-22T06:59:11.943Z,11.06
2019-04-22T07:01:45.773Z,11.29
2019-04-22T07:04:19.739Z,11.40
2019-04-22T07:12:11.965Z,11.85
2019-04-22T07:14:48.454Z,12.09
2019-04-22T07:17:30.964Z,12.08
2019-04-22T07:19:58.406Z,12.28
2019-04-22T07:22:45.806Z,11.80
2019-04-22T07:25:06.541Z,12.08
2019-04-22T07:27:40.426Z,12.54
2019-04-22T07:30:18.293Z,12.55
2019-04-22T07:33:04.824Z,12.93
2019-04-22T07:35:22.766Z,12.70
2019-04-22T07:37:56.453Z,12.49
2019-04-22T07:40:32.502Z,12.54
2019-04-22T07:43:05.034Z,12.94
2019-04-22T07:45:40.840Z,12.79
2019-04-22T07:48:19.034Z,12.55
2019-04-22T07:50:55.802Z,12.78
2019-04-22T07:53:15.783Z,12.71
2019-04-22T07:56:01.404Z,12.85
2019-04-22T07:58:29.011Z,12.63
2019-04-22T08:01:12.266Z,12.73
2019-04-22T08:03:47.134Z,12.85
2019-04-22T08:06:16.830Z,12.85
2019-04-22T08:08:56.595Z,12.70
2019-04-22T08:11:37.452Z,12.86
2019-04-22T08:13:55.240Z,12.85
2019-04-22T08:16:33.916Z,13.19
2019-04-22T08:19:12.251Z,13.60
2019-04-22T08:21:40.825Z,13.75
2019-04-22T08:24:07.843Z,13.87
2019-04-22T08:26:43.858Z,13.78
2019-04-22T08:29:21.660Z,14.00
2019-04-22T08:31:54.790Z,14.29
2019-04-22T08:34:29.958Z,14.62
2019-04-22T08:39:40.691Z,14.38
2019-04-22T08:42:35.205Z,13.93
2019-04-22T08:47:36.044Z,13.68
2019-04-22T08:50:16.479Z,13.53
2019-04-22T08:52:57.617Z,14.03
2019-04-22T08:55:32.929Z,14.42
2019-04-22T08:58:25.103Z,14.52
2019-04-22T09:00:53.718Z,14.35
2019-04-22T09:03:18.865Z,14.18
2019-04-22T09:08:34.163Z,14.25
2019-04-22T09:11:14.834Z,14.25
2019-04-22T09:13:50.725Z,14.29
2019-04-22T09:16:34.746Z,14.76
2019-04-22T09:19:00.862Z,14.61
2019-04-22T09:24:10.586Z,14.51
2019-04-22T09:26:47.583Z,14.88
2019-04-22T09:29:28.022Z,15.15
2019-04-22T09:32:05.612Z,15.28
2019-04-22T09:34:35.391Z,15.20
2019-04-22T09:37:21.094Z,15.37
2019-04-22T09:39:59.668Z,15.93
2019-04-22T09:42:24.623Z,15.82
2019-04-22T09:45:02.438Z,15.56
2019-04-22T09:47:43.173Z,15.21
2019-04-22T09:50:22.329Z,15.02
2019-04-22T09:52:59.165Z,14.93
2019-04-22T09:55:31.205Z,15.68
2019-04-22T09:58:02.810Z,15.44
2019-04-22T10:01:00.524Z,14.98
2019-04-22T10:03:19.825Z,14.89
2019-04-22T10:06:09.953Z,15.28
2019-04-22T10:08:43.620Z,15.02
2019-04-22T10:11:23.782Z,14.82
2019-04-22T10:16:33.851Z,15.69
2019-04-22T10:19:04.190Z,16.07
2019-04-22T10:21:40.570Z,16.31
2019-04-22T10:24:05.913Z,15.82
2019-04-22T10:26:37.265Z,15.73
2019-04-22T10:31:32.781Z,15.26
2019-04-22T10:33:49.671Z,15.26
2019-04-22T10:36:01.533Z,15.51
2019-04-22T10:38:28.617Z,16.27
2019-04-22T10:40:56.477Z,16.69
2019-04-22T10:43:25.306Z,16.85
2019-04-22T10:45:54.340Z,16.67
2019-04-22T10:48:22.020Z,16.74
2019-04-22T10:50:50.505Z,16.81
2019-04-22T10:53:17.782Z,17.00
2019-04-22T10:55:47.734Z,16.21
2019-04-22T10:58:16.836Z,15.76
2019-04-22T11:00:45.335Z,15.05
2019-04-22T11:03:14.459Z,14.93
2019-04-22T11:05:42.069Z,14.98
2019-04-22T11:08:10.338Z,15.22
2019-04-22T11:10:54.221Z,15.91
2019-04-22T11:13:09.407Z,15.97
2019-04-22T11:15:37.643Z,15.73
2019-04-22T11:18:07.322Z,15.48
2019-04-22T11:20:35.772Z,15.33
2019-04-22T11:23:03.040Z,15.36
2019-04-22T11:25:30.007Z,15.03
2019-04-22T11:27:57.881Z,15.33
2019-04-22T11:30:27.954Z,15.34
2019-04-22T11:32:55.967Z,15.18
2019-04-22T11:35:23.771Z,15.51
2019-04-22T11:37:51.004Z,15.06
2019-04-22T11:40:28.544Z,15.15
2019-04-22T11:42:50.297Z,15.17
2019-04-22T11:45:19.272Z,15.14
2019-04-22T11:47:47.491Z,15.47
2019-04-22T11:50:15.804Z,15.39
2019-04-22T11:52:42.746Z,15.34
2019-04-22T11:55:10.881Z,15.39
2019-04-22T11:57:39.187Z,15.99
2019-04-22T12:00:12.491Z,16.25
2019-04-22T12:02:40.936Z,16.03
2019-04-22T12:05:10.312Z,15.43
2019-04-22T12:07:41.049Z,15.61
2019-04-22T12:10:25.370Z,16.23
2019-04-22T12:12:44.391Z,16.13
2019-04-22T12:15:12.695Z,16.66
2019-04-22T12:17:40.433Z,17.15
2019-04-22T12:20:12.549Z,16.92
2019-04-22T12:22:38.882Z,16.27
2019-04-22T12:25:12.439Z,15.87
2019-04-22T12:27:41.058Z,15.99
2019-04-22T12:30:12.650Z,16.03
2019-04-22T12:32:41.173Z,16.46
2019-04-22T12:35:11.551Z,16.87
2019-04-22T12:37:47.135Z,17.22
2019-04-22T12:40:09.071Z,17.02
2019-04-22T12:42:37.298Z,17.01
2019-04-22T12:45:09.819Z,17.13
2019-04-22T12:47:37.831Z,16.88
2019-04-22T12:50:19.703Z,16.64
2019-04-22T12:52:47.876Z,16.34
2019-04-22T12:55:10.011Z,16.44
2019-04-22T12:57:38.901Z,16.04
2019-04-22T13:00:09.202Z,16.27
2019-04-22T13:02:36.736Z,16.40
2019-04-22T13:05:06.049Z,16.43
2019-04-22T13:07:33.658Z,16.73
2019-04-22T13:10:01.447Z,17.04
2019-04-22T13:12:29.038Z,17.23
2019-04-22T13:14:57.214Z,17.27
2019-04-22T13:17:24.991Z,17.37
2019-04-22T13:19:51.940Z,17.78
2019-04-22T13:22:19.061Z,18.00
2019-04-22T13:24:46.067Z,18.22
2019-04-22T13:27:13.050Z,17.80
2019-04-22T13:29:41.215Z,17.67
2019-04-22T13:32:08.977Z,17.43
2019-04-22T13:34:42.316Z,17.01
2019-04-22T13:37:05.102Z,17.18
2019-04-22T13:39:32.239Z,17.44
2019-04-22T13:42:03.553Z,17.16
2019-04-22T13:44:28.127Z,16.93
2019-04-22T13:47:08.236Z,16.67
2019-04-22T13:49:58.995Z,16.77
2019-04-22T13:52:36.036Z,16.44
2019-04-22T13:57:14.678Z,16.42
2019-04-22T13:59:28.133Z,16.48
2019-04-22T14:01:50.675Z,16.46
2019-04-22T14:04:20.594Z,16.41
2019-04-22T14:06:49.009Z,16.50
2019-04-22T14:09:17.186Z,15.98
2019-04-22T14:11:50.508Z,16.18
2019-04-22T14:14:15.529Z,16.11
2019-04-22T14:16:42.747Z,16.11
2019-04-22T14:19:20.221Z,16.43
2019-04-22T14:21:47.527Z,16.95
2019-04-22T14:24:15.810Z,17.83
2019-04-22T14:26:55.765Z,18.08
2019-04-22T14:29:11.611Z,18.27
2019-04-22T14:31:38.456Z,18.27
2019-04-22T14:34:07.729Z,18.17
2019-04-22T14:36:35.279Z,18.53
2019-04-22T14:39:08.024Z,17.93
2019-04-22T14:41:49.034Z,18.09
2019-04-22T14:47:02.203Z,17.75
2019-04-22T14:49:31.527Z,18.02
2019-04-22T14:51:56.053Z,17.85
2019-04-22T14:54:21.152Z,18.32
2019-04-22T14:56:31.602Z,18.56
2019-04-22T14:58:58.824Z,18.34
2019-04-22T15:01:26.666Z,18.46
2019-04-22T15:03:54.525Z,18.37
2019-04-22T15:06:22.325Z,18.59
2019-04-22T15:08:49.262Z,18.19
2019-04-22T15:11:17.177Z,18.41
2019-04-22T15:13:45.245Z,18.35
2019-04-22T15:16:14.285Z,18.11
2019-04-22T15:18:44.060Z,17.53
2019-04-22T15:21:12.809Z,17.70
2019-04-22T15:23:40.465Z,17.34
2019-04-22T15:26:08.695Z,17.81
2019-04-22T15:28:35.568Z,17.70
2019-04-22T15:31:03.618Z,17.81
2019-04-22T15:33:30.885Z,17.78
2019-04-22T15:35:59.069Z,17.81
2019-04-22T15:38:26.237Z,17.41
2019-04-22T15:40:54.545Z,16.89
2019-04-22T15:43:22.759Z,16.89
2019-04-22T15:45:50.864Z,16.79
2019-04-22T15:49:15.971Z,16.74
2019-04-22T15:51:43.060Z,17.15
2019-04-22T15:54:09.853Z,16.90
2019-04-22T15:56:37.030Z,16.66
2019-04-22T15:59:17.215Z,16.00
2019-04-22T16:01:37.232Z,15.81
2019-04-22T16:04:02.849Z,15.82
2019-04-22T16:06:30.182Z,15.73
2019-04-22T16:08:59.930Z,15.60
2019-04-22T16:11:27.671Z,15.76
2019-04-22T16:13:54.809Z,15.47
2019-04-22T16:16:22.916Z,15.36
2019-04-22T16:18:50.686Z,15.58
2019-04-22T16:21:31.522Z,15.52
2019-04-22T16:23:50.130Z,15.77
2019-04-22T16:26:20.206Z,15.83
2019-04-22T16:28:47.443Z,15.82
2019-04-22T16:31:15.396Z,15.80
2019-04-22T16:33:45.710Z,15.67
2019-04-22T16:36:12.989Z,15.84
2019-04-22T16:38:40.739Z,15.69
2019-04-22T16:41:08.531Z,15.46
2019-04-22T16:43:36.665Z,15.47
2019-04-22T16:46:03.816Z,15.65
2019-04-22T16:48:31.511Z,15.51
2019-04-22T16:50:59.940Z,15.57
2019-04-22T16:53:27.282Z,15.34
2019-04-22T16:55:54.899Z,15.30
2019-04-22T16:58:23.125Z,15.19
2019-04-22T17:00:50.735Z,15.35
2019-04-22T17:03:22.624Z,15.19
2019-04-22T17:05:51.798Z,15.00
2019-04-22T17:08:20.814Z,14.76
2019-04-22T17:10:49.507Z,14.66
2019-04-22T17:13:19.683Z,14.70
2019-04-22T17:15:45.248Z,14.74
2019-04-22T17:18:15.184Z,14.56
2019-04-22T17:20:42.570Z,14.61
2019-04-22T17:23:09.666Z,14.46
2019-04-22T17:25:36.382Z,14.42
2019-04-22T17:28:03.682Z,14.37
2019-04-22T17:30:30.991Z,14.29
2019-04-22T17:32:59.020Z,14.28
2019-04-22T17:35:26.298Z,14.19
2019-04-22T17:38:03.087Z,14.30
2019-04-22T17:40:38.640Z,14.19
2019-04-22T17:43:26.331Z,14.04
2019-04-22T17:45:45.006Z,14.00
2019-04-22T17:48:15.831Z,13.87
2019-04-22T17:50:46.801Z,13.80
2019-04-22T17:53:23.073Z,13.51
2019-04-22T17:55:49.479Z,13.35
2019-04-22T17:58:14.448Z,13.30
2019-04-22T18:00:36.332Z,13.16
2019-04-22T18:03:04.275Z,12.99
2019-04-22T18:05:24.095Z,13.06
2019-04-22T18:08:10.094Z,12.98
2019-04-22T18:10:35.969Z,12.86
2019-04-22T18:13:14.060Z,12.76
2019-04-22T18:15:40.952Z,12.72
2019-04-22T18:18:06.479Z,12.68
2019-04-22T18:20:30.800Z,12.62
2019-04-22T18:22:54.643Z,12.55
2019-04-22T18:25:24.587Z,12.47
2019-04-22T18:28:07.442Z,12.38
2019-04-22T18:30:20.410Z,12.39
2019-04-22T18:32:55.616Z,12.24
2019-04-22T18:35:26.464Z,12.21
2019-04-22T18:38:07.674Z,12.15
2019-04-22T18:40:37.256Z,12.17
2019-04-22T18:43:10.221Z,12.18
2019-04-22T18:46:00.196Z,12.15
2019-04-22T18:48:03.954Z,12.18
2019-04-22T18:50:52.942Z,11.99
2019-04-22T18:53:25.155Z,11.89
2019-04-22T18:55:38.781Z,11.90
2019-04-22T18:58:08.932Z,11.57
2019-04-22T19:00:31.680Z,11.70
2019-04-22T19:03:05.314Z,11.65
2019-04-22T19:05:45.070Z,11.44
2019-04-22T19:08:23.076Z,11.50
2019-04-22T19:13:45.247Z,11.47
2019-04-22T19:15:54.084Z,11.39
2019-04-22T19:18:24.532Z,11.27
2019-04-22T19:20:51.863Z,11.02
2019-04-22T19:23:17.477Z,10.99
2019-04-22T19:25:40.863Z,10.91
2019-04-22T19:28:28.071Z,10.94
2019-04-22T19:30:50.841Z,10.90
2019-04-22T19:33:18.970Z,10.74
2019-04-22T19:35:40.092Z,10.68
2019-04-22T19:38:06.764Z,10.63
2019-04-22T19:40:55.389Z,10.34
2019-04-22T19:43:20.469Z,10.30
2019-04-22T19:45:42.991Z,10.26
2019-04-22T19:48:23.339Z,10.14
2019-04-22T19:50:44.628Z,10.11
2019-04-22T19:53:10.648Z,9.88
2019-04-22T19:55:43.689Z,9.90
2019-04-22T19:58:09.299Z,9.92
2019-04-22T20:00:38.662Z,9.68
2019-04-22T20:03:20.423Z,9.68
2019-04-22T20:05:47.666Z,9.75
2019-04-22T20:08:14.273Z,9.61
2019-04-22T20:10:44.084Z,9.75
2019-04-22T20:13:22.578Z,9.37
2019-04-22T20:15:37.447Z,9.42
2019-04-22T20:18:29.691Z,9.36
2019-04-22T20:20:49.314Z,9.46
2019-04-22T20:23:08.276Z,9.39
2019-04-22T20:25:38.953Z,9.41
2019-04-22T20:28:17.830Z,9.46
2019-04-22T20:30:41.047Z,9.53
2019-04-22T20:33:06.678Z,9.48
2019-04-22T20:35:38.988Z,9.46
2019-04-22T20:38:02.922Z,9.30
2019-04-22T20:40:34.680Z,9.13
2019-04-22T20:43:10.489Z,9.16
2019-04-22T20:45:34.893Z,9.06
2019-04-22T20:47:50.987Z,9.15
2019-04-22T20:50:29.392Z,9.14
2019-04-22T20:53:06.933Z,9.05
2019-04-22T20:55:19.155Z,9.06
2019-04-22T20:58:00.728Z,8.98
2019-04-22T21:00:22.428Z,8.88
2019-04-22T21:02:48.968Z,8.86
2019-04-22T21:05:22.112Z,8.89
2019-04-22T21:07:59.512Z,8.75
2019-04-22T21:10:19.567Z,8.66
2019-04-22T21:12:48.153Z,8.62
2019-04-22T21:15:31.318Z,8.54
2019-04-22T21:17:51.282Z,8.41
2019-04-22T21:20:34.530Z,8.47
2019-04-22T21:22:56.254Z,8.53
2019-04-22T21:25:19.599Z,8.50
2019-04-22T21:27:58.233Z,8.51
2019-04-22T21:30:26.289Z,8.55
2019-04-22T21:32:54.826Z,8.60
2019-04-22T21:35:44.075Z,8.53
2019-04-22T21:37:57.981Z,8.36
2019-04-22T21:40:32.286Z,8.33
2019-04-22T21:42:59.862Z,8.46
2019-04-22T21:45:22.757Z,8.14
2019-04-22T21:48:07.019Z,8.22
2019-04-22T21:50:48.006Z,8.07
2019-04-22T21:53:02.265Z,8.08
2019-04-22T21:55:31.715Z,7.82
2019-04-22T21:58:02.626Z,7.80
2019-04-22T22:03:10.888Z,7.66
2019-04-22T22:05:28.928Z,7.80
2019-04-22T22:07:48.101Z,7.77
2019-04-22T22:10:34.456Z,7.84
2019-04-22T22:13:00.811Z,7.80
2019-04-22T22:15:28.689Z,7.72
2019-04-22T22:17:58.644Z,7.80
2019-04-22T22:20:22.757Z,7.73
2019-04-22T22:22:59.946Z,7.72
2019-04-22T22:25:23.667Z,7.81
2019-04-22T22:27:58.666Z,7.76
2019-04-22T22:30:44.671Z,7.83
2019-04-22T22:33:01.295Z,7.83
2019-04-22T22:35:27.871Z,7.85
2019-04-22T22:37:57.632Z,7.75
2019-04-22T22:40:11.976Z,7.55
2019-04-22T22:42:41.558Z,7.51
2019-04-22T22:45:17.597Z,7.60
2019-04-22T22:48:03.740Z,7.67
2019-04-22T22:50:26.008Z,7.71
2019-04-22T22:53:10.870Z,7.58
2019-04-22T22:55:31.419Z,7.50
2019-04-22T22:57:58.357Z,7.52
2019-04-22T23:00:24.503Z,7.57
2019-04-22T23:03:27.509Z,7.57
2019-04-22T23:05:32.642Z,7.42
2019-04-22T23:08:05.938Z,7.48
2019-04-22T23:10:34.142Z,7.33
2019-04-22T23:13:00.424Z,7.51
2019-04-22T23:15:26.110Z,7.50
2019-04-22T23:17:39.228Z,7.57
2019-04-22T23:20:07.490Z,7.62
2019-04-22T23:22:51.060Z,7.31
2019-04-22T23:26:17.137Z,7.45
2019-04-22T23:28:29.791Z,7.47
2019-04-22T23:30:49.758Z,7.25
2019-04-22T23:33:36.372Z,7.45
2019-04-22T23:35:56.329Z,7.38
2019-04-22T23:38:31.990Z,7.54
2019-04-22T23:41:00.129Z,7.60
2019-04-22T23:43:35.036Z,7.46
2019-04-22T23:46:02.290Z,7.31
2019-04-22T23:48:23.534Z,7.37
2019-04-22T23:50:57.311Z,7.52
2019-04-22T23:53:36.428Z,7.54
2019-04-22T23:56:00.205Z,7.53
2019-04-22T23:58:45.958Z,7.50
